Ride Results

Sussex Inlet (04-03-2017)
Ride distance: 80.0 km

Outcomes - Sussex Inlet (04-03-2017)
Division No. of Entries Retired / DNE Completed Withdrawn Ineligible V/O Percentage Completed
HW 7 - 6 1 - - 85.71%
MW 15 - 12 2 - 1 80.00%
LW 13 - 9 1 - 3 69.23%
JN 2 - 2 - - - 100.00%
Totals 37 - 29 4 - 4 78.38%
Results - Sussex Inlet (04-03-2017)
No. Rider Horse Place Time Leg Speeds Total
Km/Hr
H/R bpm
Heavyweight
44 Evan Drain-Shepheard Thee Prophecy 1 5:29:00 15.5, 13.7 14.59 34, 41, 41 (Avg:41)
63 Jolene Cole Prince Nakeel Spa 2 6:12:00 13.2, 12.5 12.90 30, 50, 50 (Avg:50)
35 Rhys Norman Owata Park Amirah 3 (BC) 6:25:00 12.8, 12.1 12.47 36, 38, 44 (Avg:41)
61 Christopher Bailey Bullio Blue Sue 4 6:44:00 11.1, 12.6 11.88 30, 36, 40 (Avg:38)
38 Robert Catlin Avita 5 6:48:00 10.8, 12.8 11.76 36, 42, 60 (Avg:51)
49 Marty Moran Forest Dale Xcalibur 6 7:30:00 11.3, 10.0 10.67 51, 42, 53 (Avg:47)
30 Kathryn Priol Smudge Pot Square Pants Withdrawn L1 0:00:00 - - 36, 41 (Avg:41)
Middleweight
20 Jenny Shepheard Currowan Jazzy 1 (BC) 4:15:00 18.6, 19.0 18.82 34, 42, 45 (Avg:43)
50 Georgia Curry Mountain Breeze Just Annallusion 2 4:53:00 15.7, 17.0 16.38 36, 38, 41 (Avg:39)
51 Anita Ashby Lentara Park Heather 3 6:15:00 13.3, 12.3 12.80 44, 44, 49 (Avg:46)
24 Talea Hasko-Stewart Blake's Heaven Summer Reign 3 6:15:00 13.3, 12.3 12.80 34, 42, 41 (Avg:41)
41 Noni Seagrim Coolinda Park Words of Wisdom 5 6:25:00 11.8, 13.1 12.47 49, 48, 53 (Avg:50)
60 Gavin Peacock Chop Chop 6 6:32:00 12.6, 11.8 12.24 30, 41, 53 (Avg:47)
32 Scott Peters Lomarni Park Lola 7 6:38:00 13.1, 11.1 12.06 36, 47, 44 (Avg:45)
31 Kristin Reese Cedar Glen Cassia 7 6:38:00 13.1, 11.1 12.06 36, 42, 58 (Avg:50)
45 Fiona Meller Malu Vale Embers 9 6:40:00 13.5, 10.7 12.00 29, 36, 49 (Avg:42)
39 Clare Feary Picnic Park Thor 10 6:48:00 10.8, 12.8 11.76 39, 48, 46 (Avg:47)
37 John Symons Forest Dale Belle De Jour 11 7:30:00 11.3, 10.0 10.67 31, 35, 57 (Avg:46)
48 Bev Turner Coco Chanel 11 7:30:00 11.3, 10.0 10.67 37, 42, 43 (Avg:42)
47 Leanne Hickson Kharbo Heart Rate L2 0:00:00 11.7, 11.8 - 42, 55, 78 (Avg:66)
21 Jennifer Rogers Shahira I.C.U. Withdrawn L1 0:00:00 - - 29, 34 (Avg:34)
65 Kayte Barnard FC Bejing Withdrawn P/R 0:00:00 - - 34, 48 (Avg:48)
Lightweight
22 Elaine Kirby Turingal Park Nicholas 1 5:13:15 16.5, 14.2 15.32 36, 43, 48 (Avg:45)
25 Fia Hasko-Stewart Blake's Heaven Venus 2 5:13:35 15.8, 14.7 15.31 32, 46, 42 (Avg:44)
26 Vanessa Richardson Eminem Vyper 3 (BC) 5:29:00 15.5, 13.7 14.59 36, 42, 42 (Avg:42)
27 Faith Robinson Espirit Serena 4 6:32:00 12.6, 11.8 12.24 32, 38, 43 (Avg:40)
42 Shirley Clark Oso Zoltan 5 6:40:00 13.7, 10.6 12.00 36, 46, 48 (Avg:47)
33 Sue Todd Shakari Bear 5 6:40:00 13.8, 10.5 12.00 36, 43, 48 (Avg:45)
29 Cheny Collins Henley Farm Jidal 7 7:05:00 11.7, 10.9 11.29 36, 49, 49 (Avg:49)
66 Kirsty Garner Sandine Legal 7 7:05:00 11.7, 10.9 11.29 34, 39, 48 (Avg:43)
64 Mary Hollingsworth Sandine Bugatti 7 7:05:00 11.7, 10.9 11.29 32, 55, 56 (Avg:55)
43 Jacque Thoms Sotiris Lame L2 0:00:00 12.4, 10.8 - 31, 42, 50 (Avg:46)
40 Matthew Dunne Coolinda Park Sheeza Doll Lame L1 0:00:00 11.8 - 42, 44 (Avg:44)
36 Shelly Ison Lulu Lame L1 0:00:00 12.8 - 34, 35 (Avg:35)
62 Elizabeth Moir Bullio Shkif Withdrawn P/R 0:00:00 - - 32, 34 (Avg:34)
Junior
23 Celia Hodgson Brookleigh Shiralee 1 (BC) 5:13:00 15.8, 14.8 15.34 30, 39, 36 (Avg:37)
28 Emma Cole Windradyne Flame 2 6:12:00 13.2, 12.5 12.90 42, 40, 49 (Avg:44)